KBPT/BPT METAR and TAF weather

Enter ICAO airport designator
Station Type Date Time Source
KBPT METAR 2018/01/22 11:53 UTC NOAA

KBPT 221153Z 25006KT 6SM BR OVC006 19/18 A2991 RMK AO2 CIG 005V010 SLP128 60110 70110 T01890183 10194 20172 53014


Station Type Date Time Source
KBPT Decoded METAR 2018/01/22 11:53 UTC NOAA

SOUTHEAST TEXAS RGNL AIRPORT, TX, United States (KBPT) 29-95N 094-08W 5M
Jan 22, 2018 - 06:53 AM EST / 2018.01.22 1153 UTC
Wind: from the WSW (250 degrees) at 7 MPH (6 KT):0
Visibility: 6 mile(s):0
Sky conditions: overcast
Weather: mist
Temperature: 66.0 F (18.9 C)
Dew Point: 64.9 F (18.3 C)
Relative Humidity: 96%
Pressure (altimeter): 29.91 in. Hg (1012 hPa)
Pressure tendency: 0.04 inches (1.4 hPa) higher than three hours ago
ob: KBPT 221153Z 25006KT 6SM BR OVC006 19/18 A2991 RMK AO2 CIG 005V010 SLP128 60110 70110 T01890183 10194 20172 53014
cycle: 12

Station Type Date Time Source
KBPT TAF 2018/01/22 12:22 UTC NOAA

TAF KBPT 221120Z 2212/2312 23008KT P6SM VCSH SCT007 BKN015
FM221300 26010KT P6SM FEW015 BKN040
FM221500 31012G18KT P6SM SKC
FM230000 VRB05KT P6SM SKC


Example: see airport list